• Join FlightAware (Why Join?)
  • Login
  • US Flag 
06:16AM EST


 

Airport Tracker/Info


-or-


 

Live Flight TrackerFlight Track Log ✈ PDT4373 ✈ 20-Oct-2013 ✈ KPHL - KBGM

Flight Track Log - Related Links

Times and Time Zones

All times are in EDT time to prevent confusion due to time zone crossing. See the PDT4373 flight status page for this flight to view local times or setup timezone preferences in your user account.

Time Position Orientation Groundspeed Altitude Reporting Facility
EDT Latitude Longitude Course Direction KTS MPH feet Rate Location/Type
09:26AM 39.9000 -75.2333 351° North 123 142 600  Level Philadelphia TRACON
09:27AM 39.9167 -75.2500 323° Northwest 124 143 2,100 1,320 Climbing Philadelphia TRACON
09:28AM 39.9667 -75.2500 360° North 133 153 3,200 960 Climbing Philadelphia TRACON
09:29AM 40.0834 -75.3055 349° North  Level Estimated
09:29AM 40.0000 -75.2500 360° North 149 171 4,000  Level Philadelphia TRACON
09:30AM 40.1548 -75.3205 351° North  Level FlightAware Approximate
09:30AM 40.0500 -75.2667 346° North 196 226 4,000  Level Philadelphia TRACON
09:31AM 40.2261 -75.3357 351° North  Level FlightAware Approximate
09:31AM 40.1000 -75.2667 360° North 202 232 4,000  Level Philadelphia TRACON
09:32AM 40.2975 -75.3508 351° North  Level FlightAware Approximate
09:32AM 40.1500 -75.2833 346° North 203 234 4,000  Level Philadelphia TRACON
09:33AM 40.2000 -75.3167 333° Northwest 205 236 4,000  Level Philadelphia TRACON
09:34AM 40.2667 -75.3333 349° North 200 230 4,000  Level Philadelphia TRACON
09:36AM 40.3457 -75.3549 348° North  Level FlightAware Approximate
09:43AM 40.8447 -75.4500 North  Level FlightAware Approximate
09:44AM 40.9170 -75.4500 North  Level FlightAware Approximate
09:45AM 40.9893 -75.4500 North  Level FlightAware Approximate
09:46AM 41.0616 -75.4522 357° North  Level FlightAware Approximate
09:47AM 41.1337 -75.4577 357° North  Level FlightAware Approximate
09:48AM 41.2059 -75.4633 357° North  Level FlightAware Approximate
09:49AM 41.2781 -75.4667 North  Level FlightAware Approximate
09:50AM 41.3504 -75.4667 North  Level FlightAware Approximate
09:51AM 41.4227 -75.4667 North  Level FlightAware Approximate
09:52AM 41.4893 -75.4893 323° Northwest  Level FlightAware Approximate
09:53AM 41.5473 -75.5470 323° Northwest  Level FlightAware Approximate
09:54AM 41.6052 -75.6049 323° Northwest  Level FlightAware Approximate
09:55AM 41.6630 -75.6629 323° Northwest  Level FlightAware Approximate
09:56AM 41.7210 -75.7207 326° Northwest  Level FlightAware Approximate
09:57AM 41.7806 -75.7755 326° Northwest  Level FlightAware Approximate
09:58AM 41.8402 -75.8305 326° Northwest  Level FlightAware Approximate
09:59AM 41.8997 -75.8855 325° Northwest  Level FlightAware Approximate
10:00AM 41.9586 -75.9419 323° Northwest  Level FlightAware Approximate
10:01AM 42.0166 -75.9999 323° Northwest  Level FlightAware Approximate
10:02AM 42.0746 -76.0579 323° Northwest  Level FlightAware Approximate
10:03AM 42.1327 -76.1160 323° Northwest  Level FlightAware Approximate
10:04AM 42.1692 -76.0771 62° Northeast  Level FlightAware Approximate
10:05AM 42.2000 -75.9900 90° East  Level FlightAware Approximate
10:06AM 42.2000 -75.9667 90° East  Level FlightAware Approximate
10:07AM 42.2084 -75.9796 90° East  Level Estimated
10:08AM 42.2084 -75.9796 90° East  Level Estimated
10:09AM 42.2084 -75.9796 90° East  Level Estimated
10:10AM 42.2084 -75.9796 90° East  Level Estimated
10:11AM 42.2084 -75.9796 90° East  Level Estimated
10:12AM 42.2084 -75.9796 90° East  Level Estimated
10:13AM 42.2084 -75.9796 90° East  Level Estimated